createdAt,value
2022-12-25T00:00:10.475Z,95.29
2022-12-25T00:03:35.640Z,95.56
2022-12-25T00:06:57.451Z,95.40
2022-12-25T00:10:20.461Z,95.43
2022-12-25T00:13:42.871Z,95.17
2022-12-25T00:17:04.869Z,95.18
2022-12-25T00:20:26.124Z,94.70
2022-12-25T00:23:48.313Z,94.00
2022-12-25T00:27:11.464Z,93.45
2022-12-25T00:30:33.292Z,93.54
2022-12-25T00:33:54.879Z,92.45
2022-12-25T00:37:16.567Z,92.29
2022-12-25T00:40:43.923Z,92.63
2022-12-25T00:44:07.194Z,92.57
2022-12-25T00:47:29.419Z,92.17
2022-12-25T00:50:54.784Z,92.08
2022-12-25T00:54:16.684Z,90.98
2022-12-25T00:57:38.027Z,90.50
2022-12-25T01:01:01.500Z,89.78
2022-12-25T01:04:22.896Z,88.97
2022-12-25T01:07:44.609Z,88.94
2022-12-25T01:11:07.729Z,88.83
2022-12-25T01:14:29.227Z,88.21
2022-12-25T01:17:52.224Z,88.17
2022-12-25T01:21:16.703Z,87.67
2022-12-25T01:24:38.194Z,86.88
2022-12-25T01:27:59.976Z,86.77
2022-12-25T01:31:23.589Z,86.97
2022-12-25T01:34:51.984Z,87.08
2022-12-25T01:38:17.248Z,87.05
2022-12-25T01:41:39.124Z,86.48
2022-12-25T01:45:35.821Z,85.92
2022-12-25T01:49:00.375Z,85.68
2022-12-25T01:52:26.101Z,85.59
2022-12-25T01:55:50.753Z,85.21
2022-12-25T01:59:14.808Z,85.44
2022-12-25T02:02:37.335Z,85.89
2022-12-25T02:06:00.430Z,86.00
2022-12-25T02:09:23.448Z,85.51
2022-12-25T02:12:46.431Z,85.60
2022-12-25T02:16:14.401Z,85.73
2022-12-25T02:19:57.173Z,85.65
2022-12-25T02:23:42.155Z,85.88
2022-12-25T02:27:20.615Z,85.52
2022-12-25T02:30:47.393Z,85.21
2022-12-25T02:34:14.658Z,84.74
2022-12-25T02:37:41.844Z,84.45
2022-12-25T02:41:09.250Z,84.72
2022-12-25T02:44:49.851Z,84.98
2022-12-25T02:48:32.148Z,84.45
2022-12-25T02:52:15.787Z,84.42
2022-12-25T02:55:57.501Z,84.57
2022-12-25T02:59:38.626Z,84.87
2022-12-25T03:03:18.918Z,84.85
2022-12-25T03:06:46.983Z,85.20
2022-12-25T03:10:30.613Z,85.79
2022-12-25T03:13:54.960Z,86.57
2022-12-25T03:17:16.030Z,86.50
2022-12-25T03:20:58.519Z,86.01
2022-12-25T03:24:38.912Z,86.17
2022-12-25T03:28:01.416Z,86.72
2022-12-25T03:31:29.714Z,86.13
2022-12-25T03:35:17.004Z,86.21
2022-12-25T03:39:05.367Z,86.90
2022-12-25T03:42:53.760Z,86.32
2022-12-25T03:46:50.590Z,86.50
2022-12-25T03:50:35.288Z,86.62
2022-12-25T03:54:18.464Z,86.51
2022-12-25T03:58:07.915Z,87.21
2022-12-25T04:01:46.161Z,87.76
2022-12-25T04:05:26.052Z,87.89
2022-12-25T04:09:04.751Z,88.38
2022-12-25T04:12:43.601Z,88.80
2022-12-25T04:16:24.958Z,88.80
2022-12-25T04:20:04.037Z,88.37
2022-12-25T04:23:43.192Z,88.88
2022-12-25T04:27:22.465Z,88.64
2022-12-25T04:31:01.507Z,89.82
2022-12-25T04:34:50.019Z,90.06
2022-12-25T04:38:11.585Z,89.66
2022-12-25T04:41:33.098Z,89.75
2022-12-25T04:44:54.727Z,89.79
2022-12-25T04:48:16.492Z,90.27
2022-12-25T04:51:39.548Z,90.26
2022-12-25T04:55:01.280Z,91.44
2022-12-25T04:58:22.935Z,91.48
2022-12-25T05:01:44.803Z,91.80
2022-12-25T05:05:08.550Z,91.68
2022-12-25T05:08:32.674Z,92.34
2022-12-25T05:11:54.268Z,92.19
2022-12-25T05:15:16.161Z,92.86
2022-12-25T05:18:37.671Z,93.88
2022-12-25T05:21:59.443Z,93.94
2022-12-25T05:25:22.601Z,93.66
2022-12-25T05:28:44.260Z,93.12
2022-12-25T05:32:06.777Z,93.50
2022-12-25T05:35:28.514Z,94.00
2022-12-25T05:38:51.145Z,93.99
2022-12-25T05:42:14.703Z,94.05
2022-12-25T05:45:36.750Z,93.89
2022-12-25T05:48:58.376Z,93.86
2022-12-25T05:52:19.967Z,94.15
2022-12-25T05:55:44.077Z,94.20
2022-12-25T05:59:06.871Z,94.06
2022-12-25T06:02:28.375Z,93.62
2022-12-25T06:05:52.032Z,93.91
2022-12-25T06:09:14.255Z,93.43
2022-12-25T06:12:35.711Z,94.18
2022-12-25T06:15:59.135Z,94.29
2022-12-25T06:19:21.134Z,93.89
2022-12-25T06:22:42.676Z,93.34
2022-12-25T06:26:05.959Z,92.98
2022-12-25T06:29:27.915Z,93.06
2022-12-25T06:32:51.091Z,92.57
2022-12-25T06:36:14.824Z,91.87
2022-12-25T06:39:36.744Z,91.80
2022-12-25T06:42:58.485Z,91.27
2022-12-25T06:46:20.997Z,90.82
2022-12-25T06:49:44.260Z,89.99
2022-12-25T06:53:05.860Z,89.86
2022-12-25T06:56:29.101Z,89.66
2022-12-25T06:59:55.097Z,89.44
2022-12-25T07:03:22.068Z,89.39
2022-12-25T07:06:45.004Z,89.02
2022-12-25T07:10:08.328Z,89.46
2022-12-25T07:13:30.131Z,89.28
2022-12-25T07:16:51.841Z,89.48
2022-12-25T07:20:13.599Z,89.55
2022-12-25T07:23:36.405Z,89.70
2022-12-25T07:26:58.117Z,89.64
2022-12-25T07:30:20.017Z,89.48
2022-12-25T07:33:42.153Z,89.76
2022-12-25T07:37:03.964Z,89.55
2022-12-25T07:40:27.383Z,90.10
2022-12-25T07:43:51.519Z,90.04
2022-12-25T07:47:15.650Z,89.61
2022-12-25T07:50:37.387Z,90.09
2022-12-25T07:53:59.037Z,89.46
2022-12-25T07:57:21.699Z,89.70
2022-12-25T08:00:43.435Z,89.60
2022-12-25T08:04:05.281Z,89.20
2022-12-25T08:07:27.329Z,89.09
2022-12-25T08:10:49.347Z,89.85
2022-12-25T08:14:12.219Z,89.92
2022-12-25T08:17:35.762Z,89.47
2022-12-25T08:20:57.559Z,89.34
2022-12-25T08:24:19.569Z,89.88
2022-12-25T08:27:41.111Z,90.20
2022-12-25T08:31:09.885Z,89.43
2022-12-25T08:34:31.248Z,90.33
2022-12-25T08:37:53.107Z,89.96
2022-12-25T08:41:16.205Z,89.93
2022-12-25T08:44:37.822Z,89.79
2022-12-25T08:48:00.975Z,89.86
2022-12-25T08:51:22.953Z,89.81
2022-12-25T08:54:44.717Z,89.69
2022-12-25T08:58:06.004Z,89.86
2022-12-25T09:01:27.908Z,90.33
2022-12-25T09:04:50.839Z,90.18
2022-12-25T09:08:12.690Z,90.46
2022-12-25T09:11:34.332Z,90.77
2022-12-25T09:14:56.156Z,91.07
2022-12-25T09:18:17.872Z,91.55
2022-12-25T09:21:41.031Z,91.37
2022-12-25T09:25:02.473Z,91.18
2022-12-25T09:28:24.258Z,91.40
2022-12-25T09:31:46.147Z,91.15
2022-12-25T09:35:08.343Z,91.52
2022-12-25T09:38:31.836Z,90.99
2022-12-25T09:41:57.351Z,91.15
2022-12-25T09:45:25.738Z,90.80
2022-12-25T09:48:51.763Z,89.78
2022-12-25T09:52:15.800Z,89.51
2022-12-25T09:55:44.927Z,88.70
2022-12-25T09:59:18.501Z,89.80
2022-12-25T10:03:03.849Z,89.73
2022-12-25T10:06:32.009Z,89.25
2022-12-25T10:10:03.786Z,88.93
2022-12-25T10:13:47.953Z,88.91
2022-12-25T10:17:27.278Z,89.22
2022-12-25T10:20:53.025Z,89.26
2022-12-25T10:24:23.312Z,88.77
2022-12-25T10:27:45.256Z,88.93
2022-12-25T10:31:19.924Z,88.96
2022-12-25T10:34:43.572Z,89.13
2022-12-25T10:38:12.195Z,88.81
2022-12-25T10:41:50.227Z,88.98
2022-12-25T10:45:12.271Z,88.89
2022-12-25T10:48:35.449Z,88.95
2022-12-25T10:51:56.938Z,88.75
2022-12-25T10:55:28.136Z,88.63
2022-12-25T10:58:50.322Z,88.08
2022-12-25T11:02:17.562Z,87.47
2022-12-25T11:05:40.945Z,87.27
2022-12-25T11:09:04.015Z,87.20
2022-12-25T11:12:30.846Z,86.73
2022-12-25T11:16:04.480Z,87.22
2022-12-25T11:19:28.981Z,87.75
2022-12-25T11:22:52.400Z,87.62
2022-12-25T11:26:13.910Z,88.42
2022-12-25T11:29:43.581Z,88.20
2022-12-25T11:33:11.888Z,88.44
2022-12-25T11:36:44.595Z,88.57
2022-12-25T11:40:14.734Z,88.50
2022-12-25T11:43:42.012Z,88.60
2022-12-25T11:47:12.949Z,88.42
2022-12-25T11:50:38.899Z,88.57
2022-12-25T11:54:05.265Z,88.03
2022-12-25T11:57:32.254Z,88.32
2022-12-25T12:00:56.439Z,88.66
2022-12-25T12:04:29.453Z,88.53
2022-12-25T12:07:58.274Z,88.82
2022-12-25T12:11:22.651Z,89.09
2022-12-25T12:14:50.847Z,88.82
2022-12-25T12:18:22.769Z,89.05
2022-12-25T12:21:50.543Z,88.79
2022-12-25T12:25:18.324Z,89.13
2022-12-25T12:28:46.752Z,89.04
2022-12-25T12:32:28.880Z,89.34
2022-12-25T12:35:50.744Z,90.05
2022-12-25T12:39:24.326Z,89.89
2022-12-25T12:42:50.537Z,89.87
2022-12-25T12:46:18.229Z,89.79
2022-12-25T12:49:42.187Z,89.71
2022-12-25T12:53:19.643Z,89.40
2022-12-25T12:56:41.292Z,89.30
2022-12-25T13:00:09.903Z,89.01
2022-12-25T13:03:49.226Z,89.04
2022-12-25T13:07:23.377Z,88.73
2022-12-25T13:10:47.948Z,88.70
2022-12-25T13:14:16.062Z,88.49
2022-12-25T13:17:38.230Z,88.43
2022-12-25T13:21:02.447Z,88.23
2022-12-25T13:24:27.956Z,88.41
2022-12-25T13:27:56.913Z,88.21
2022-12-25T13:31:20.562Z,88.04
2022-12-25T13:34:43.524Z,87.75
2022-12-25T13:38:11.105Z,87.58
2022-12-25T13:41:59.954Z,87.24
2022-12-25T13:45:24.779Z,87.42
2022-12-25T13:48:56.145Z,87.12
2022-12-25T13:52:21.108Z,87.46
2022-12-25T13:55:45.285Z,87.55
2022-12-25T13:59:14.685Z,87.94
2022-12-25T14:02:39.039Z,87.71
2022-12-25T14:06:02.273Z,87.78
2022-12-25T14:09:24.477Z,87.79
2022-12-25T14:12:49.452Z,87.90
2022-12-25T14:16:12.586Z,87.62
2022-12-25T14:19:35.339Z,87.70
2022-12-25T14:22:59.086Z,87.84
2022-12-25T14:26:23.558Z,87.85
2022-12-25T14:29:47.629Z,88.33
2022-12-25T14:33:16.977Z,88.52
2022-12-25T14:36:39.005Z,88.09
2022-12-25T14:40:02.253Z,88.64
2022-12-25T14:43:26.932Z,88.61
2022-12-25T14:46:48.713Z,89.08
2022-12-25T14:50:25.622Z,88.64
2022-12-25T14:53:50.336Z,88.98
2022-12-25T14:57:19.115Z,89.23
2022-12-25T15:00:40.850Z,89.05
2022-12-25T15:04:08.525Z,88.80
2022-12-25T15:07:32.951Z,89.21
2022-12-25T15:11:01.834Z,89.54
2022-12-25T15:14:25.377Z,89.17
2022-12-25T15:17:47.112Z,89.45
2022-12-25T15:21:15.697Z,89.39
2022-12-25T15:24:38.808Z,89.74
2022-12-25T15:28:00.242Z,89.86
2022-12-25T15:31:25.231Z,90.08
2022-12-25T15:34:49.648Z,90.34
2022-12-25T15:38:11.572Z,90.61
2022-12-25T15:41:54.473Z,90.71
2022-12-25T15:45:21.397Z,90.55
2022-12-25T15:48:43.274Z,90.87
2022-12-25T15:52:05.205Z,91.14
2022-12-25T15:55:26.757Z,90.57
2022-12-25T15:58:49.848Z,90.92
2022-12-25T16:02:16.605Z,90.82
2022-12-25T16:05:38.259Z,91.25
2022-12-25T16:08:59.892Z,90.96
2022-12-25T16:12:21.739Z,90.86
2022-12-25T16:15:45.046Z,91.24
2022-12-25T16:19:07.039Z,91.10
2022-12-25T16:22:28.469Z,91.44
2022-12-25T16:25:50.534Z,91.42
2022-12-25T16:29:12.682Z,91.67
2022-12-25T16:32:35.569Z,91.48
2022-12-25T16:35:57.499Z,91.92
2022-12-25T16:39:19.204Z,91.78
2022-12-25T16:42:40.467Z,91.99
2022-12-25T16:46:02.356Z,91.96
2022-12-25T16:49:25.313Z,92.04
2022-12-25T16:52:47.227Z,92.25
2022-12-25T16:56:10.740Z,92.46
2022-12-25T16:59:33.022Z,92.15
2022-12-25T17:02:57.658Z,92.22
2022-12-25T17:06:23.107Z,92.02
2022-12-25T17:09:47.669Z,92.08
2022-12-25T17:13:09.443Z,92.40
2022-12-25T17:16:33.558Z,92.32
2022-12-25T17:19:55.730Z,92.32
2022-12-25T17:23:18.928Z,92.52
2022-12-25T17:26:40.730Z,92.86
2022-12-25T17:30:02.632Z,92.76
2022-12-25T17:33:24.388Z,92.80
2022-12-25T17:36:46.369Z,93.15
2022-12-25T17:40:11.019Z,93.61
2022-12-25T17:43:33.486Z,93.85
2022-12-25T17:46:54.997Z,93.63
2022-12-25T17:50:16.847Z,93.39
2022-12-25T17:53:40.034Z,93.18
2022-12-25T17:57:02.669Z,92.95
2022-12-25T18:00:24.341Z,93.07
2022-12-25T18:03:46.996Z,92.91
2022-12-25T18:07:08.379Z,92.90
2022-12-25T18:10:29.916Z,92.48
2022-12-25T18:13:53.526Z,92.41
2022-12-25T18:17:14.782Z,92.39
2022-12-25T18:20:40.307Z,92.62
2022-12-25T18:24:03.921Z,92.89
2022-12-25T18:27:25.387Z,92.63
2022-12-25T18:30:48.600Z,92.78
2022-12-25T18:34:09.969Z,92.64
2022-12-25T18:37:34.472Z,92.79
2022-12-25T18:41:01.135Z,93.09
2022-12-25T18:44:22.957Z,92.59
2022-12-25T18:47:46.365Z,92.59
2022-12-25T18:51:12.145Z,92.42
2022-12-25T18:54:35.415Z,92.87
2022-12-25T18:57:57.021Z,92.67
2022-12-25T19:01:20.690Z,92.81
2022-12-25T19:04:44.100Z,92.53
2022-12-25T19:08:05.747Z,92.76
2022-12-25T19:11:27.181Z,92.65
2022-12-25T19:14:48.969Z,93.04
2022-12-25T19:18:11.038Z,92.71
2022-12-25T19:21:33.928Z,93.72
2022-12-25T19:24:55.764Z,94.06
2022-12-25T19:28:17.940Z,94.21
2022-12-25T19:31:40.630Z,94.67
2022-12-25T19:35:04.495Z,94.42
2022-12-25T19:38:27.621Z,94.69
2022-12-25T19:41:49.611Z,95.01
2022-12-25T19:45:11.806Z,94.94
2022-12-25T19:48:34.756Z,94.65
2022-12-25T19:51:56.590Z,95.02
2022-12-25T19:55:21.969Z,94.77
2022-12-25T19:58:43.702Z,94.21
2022-12-25T20:02:05.602Z,94.68
2022-12-25T20:05:27.139Z,94.60
2022-12-25T20:08:50.028Z,94.81
2022-12-25T20:12:15.049Z,94.76
2022-12-25T20:15:36.811Z,94.47
2022-12-25T20:18:59.073Z,94.28
2022-12-25T20:22:20.257Z,94.69
2022-12-25T20:25:42.718Z,94.69
2022-12-25T20:29:05.840Z,94.53
2022-12-25T20:32:27.688Z,94.11
2022-12-25T20:35:50.197Z,94.64
2022-12-25T20:39:12.870Z,94.54
2022-12-25T20:42:34.388Z,94.38
2022-12-25T20:45:58.272Z,94.53
2022-12-25T20:49:19.705Z,94.70
2022-12-25T20:52:41.464Z,94.67
2022-12-25T20:56:03.603Z,94.65
2022-12-25T20:59:24.948Z,94.48
2022-12-25T21:02:48.216Z,94.47
2022-12-25T21:06:10.678Z,94.70
2022-12-25T21:09:32.581Z,94.76
2022-12-25T21:12:54.285Z,94.76
2022-12-25T21:16:18.543Z,94.63
2022-12-25T21:19:41.653Z,94.64
2022-12-25T21:23:03.431Z,94.49
2022-12-25T21:26:27.080Z,94.66
2022-12-25T21:29:48.729Z,95.08
2022-12-25T21:33:30.277Z,94.88
2022-12-25T21:36:53.141Z,95.01
2022-12-25T21:40:16.654Z,94.71
2022-12-25T21:43:39.602Z,94.95
2022-12-25T21:47:01.240Z,94.91
2022-12-25T21:50:40.666Z,94.68
2022-12-25T21:54:04.288Z,94.78
2022-12-25T21:57:25.731Z,94.90
2022-12-25T22:00:47.541Z,94.95
2022-12-25T22:04:10.159Z,94.98
2022-12-25T22:07:32.596Z,95.10
2022-12-25T22:10:55.636Z,94.79
2022-12-25T22:14:51.297Z,94.71
2022-12-25T22:18:32.478Z,95.11
2022-12-25T22:21:54.032Z,94.78
2022-12-25T22:25:17.191Z,95.01
2022-12-25T22:28:40.551Z,95.34
2022-12-25T22:32:02.133Z,95.41
2022-12-25T22:35:23.806Z,95.45
2022-12-25T22:38:45.476Z,95.33
2022-12-25T22:42:06.931Z,95.11
2022-12-25T22:45:30.087Z,95.34
2022-12-25T22:48:51.734Z,95.10
2022-12-25T22:52:13.355Z,95.20
2022-12-25T22:55:34.617Z,95.00
2022-12-25T22:58:57.278Z,94.83
2022-12-25T23:02:20.404Z,95.25
2022-12-25T23:05:42.462Z,95.13
2022-12-25T23:09:06.381Z,95.10
2022-12-25T23:12:45.547Z,95.22
2022-12-25T23:16:07.897Z,95.16
2022-12-25T23:19:48.607Z,95.02
2022-12-25T23:23:32.686Z,95.09
2022-12-25T23:26:54.186Z,95.14
2022-12-25T23:30:17.482Z,94.93
2022-12-25T23:33:39.147Z,95.25
2022-12-25T23:37:02.501Z,95.29
2022-12-25T23:40:24.216Z,95.39
2022-12-25T23:43:46.033Z,95.27
2022-12-25T23:47:07.592Z,95.57
2022-12-25T23:50:29.266Z,95.49
2022-12-25T23:53:52.150Z,95.27
2022-12-25T23:57:13.688Z,95.35
